sensor_id;sensor_type;location;lat;lon;timestamp;P1;durP1;ratioP1;P2;durP2;ratioP2
5058;SDS011;2548;52.050;11.036;2023-08-06T00:00:07;5.88;;;4.40;;
5058;SDS011;2548;52.050;11.036;2023-08-06T00:02:35;5.40;;;4.10;;
5058;SDS011;2548;52.050;11.036;2023-08-06T00:05:02;5.97;;;3.80;;
5058;SDS011;2548;52.050;11.036;2023-08-06T00:07:30;3.55;;;3.20;;
5058;SDS011;2548;52.050;11.036;2023-08-06T00:09:58;9.10;;;3.70;;
5058;SDS011;2548;52.050;11.036;2023-08-06T00:12:25;3.10;;;2.90;;
5058;SDS011;2548;52.050;11.036;2023-08-06T00:14:52;19.33;;;2.97;;
5058;SDS011;2548;52.050;11.036;2023-08-06T00:17:22;9.40;;;3.38;;
5058;SDS011;2548;52.050;11.036;2023-08-06T00:19:49;14.00;;;3.38;;
5058;SDS011;2548;52.050;11.036;2023-08-06T00:22:16;12.07;;;3.47;;
5058;SDS011;2548;52.050;11.036;2023-08-06T00:24:44;3.67;;;3.47;;
5058;SDS011;2548;52.050;11.036;2023-08-06T00:27:11;4.72;;;3.75;;
5058;SDS011;2548;52.050;11.036;2023-08-06T00:29:39;4.28;;;3.88;;
5058;SDS011;2548;52.050;11.036;2023-08-06T00:32:06;3.47;;;3.10;;
5058;SDS011;2548;52.050;11.036;2023-08-06T00:34:35;3.38;;;3.15;;
5058;SDS011;2548;52.050;11.036;2023-08-06T00:37:02;4.07;;;3.70;;
5058;SDS011;2548;52.050;11.036;2023-08-06T00:39:30;3.70;;;3.40;;
5058;SDS011;2548;52.050;11.036;2023-08-06T00:41:58;10.02;;;3.40;;
5058;SDS011;2548;52.050;11.036;2023-08-06T00:44:26;6.60;;;3.30;;
5058;SDS011;2548;52.050;11.036;2023-08-06T00:46:53;3.97;;;3.67;;
5058;SDS011;2548;52.050;11.036;2023-08-06T00:49:21;5.00;;;3.55;;
5058;SDS011;2548;52.050;11.036;2023-08-06T00:51:50;6.85;;;3.90;;
5058;SDS011;2548;52.050;11.036;2023-08-06T00:54:18;4.75;;;3.88;;
5058;SDS011;2548;52.050;11.036;2023-08-06T00:56:45;5.05;;;3.65;;
5058;SDS011;2548;52.050;11.036;2023-08-06T00:59:14;4.40;;;3.97;;
5058;SDS011;2548;52.050;11.036;2023-08-06T01:01:41;6.68;;;3.88;;
5058;SDS011;2548;52.050;11.036;2023-08-06T01:04:09;4.93;;;4.53;;
5058;SDS011;2548;52.050;11.036;2023-08-06T01:06:39;8.52;;;5.95;;
5058;SDS011;2548;52.050;11.036;2023-08-06T01:09:19;6.53;;;5.88;;
5058;SDS011;2548;52.050;11.036;2023-08-06T01:11:57;8.80;;;6.72;;
5058;SDS011;2548;52.050;11.036;2023-08-06T01:14:34;8.57;;;7.78;;
5058;SDS011;2548;52.050;11.036;2023-08-06T01:17:15;8.40;;;7.53;;
5058;SDS011;2548;52.050;11.036;2023-08-06T01:19:42;7.28;;;6.57;;
5058;SDS011;2548;52.050;11.036;2023-08-06T01:22:11;9.25;;;8.35;;
5058;SDS011;2548;52.050;11.036;2023-08-06T01:24:38;8.13;;;7.38;;
5058;SDS011;2548;52.050;11.036;2023-08-06T01:27:14;7.88;;;7.18;;
5058;SDS011;2548;52.050;11.036;2023-08-06T01:29:52;7.47;;;6.88;;
5058;SDS011;2548;52.050;11.036;2023-08-06T01:32:26;8.35;;;7.55;;
5058;SDS011;2548;52.050;11.036;2023-08-06T01:34:55;10.80;;;7.47;;
5058;SDS011;2548;52.050;11.036;2023-08-06T01:37:26;11.07;;;6.90;;
5058;SDS011;2548;52.050;11.036;2023-08-06T01:39:54;7.88;;;7.05;;
5058;SDS011;2548;52.050;11.036;2023-08-06T01:42:22;7.63;;;6.93;;
5058;SDS011;2548;52.050;11.036;2023-08-06T01:44:49;9.50;;;6.75;;
5058;SDS011;2548;52.050;11.036;2023-08-06T01:47:17;9.40;;;6.72;;
5058;SDS011;2548;52.050;11.036;2023-08-06T01:49:44;6.45;;;5.85;;
5058;SDS011;2548;52.050;11.036;2023-08-06T01:52:12;8.02;;;6.43;;
5058;SDS011;2548;52.050;11.036;2023-08-06T01:54:40;8.43;;;6.10;;
5058;SDS011;2548;52.050;11.036;2023-08-06T01:57:08;6.55;;;5.95;;
5058;SDS011;2548;52.050;11.036;2023-08-06T01:59:35;7.18;;;6.47;;
5058;SDS011;2548;52.050;11.036;2023-08-06T02:02:03;7.60;;;6.90;;
5058;SDS011;2548;52.050;11.036;2023-08-06T02:04:31;10.50;;;6.68;;
5058;SDS011;2548;52.050;11.036;2023-08-06T02:06:58;10.77;;;6.18;;
5058;SDS011;2548;52.050;11.036;2023-08-06T02:09:26;9.82;;;6.47;;
5058;SDS011;2548;52.050;11.036;2023-08-06T02:11:55;9.10;;;6.78;;
5058;SDS011;2548;52.050;11.036;2023-08-06T02:14:23;10.60;;;6.38;;
5058;SDS011;2548;52.050;11.036;2023-08-06T02:16:50;8.00;;;6.75;;
5058;SDS011;2548;52.050;11.036;2023-08-06T02:19:18;6.93;;;5.20;;
5058;SDS011;2548;52.050;11.036;2023-08-06T02:21:46;7.13;;;6.07;;
5058;SDS011;2548;52.050;11.036;2023-08-06T02:24:13;11.93;;;5.28;;
5058;SDS011;2548;52.050;11.036;2023-08-06T02:26:41;9.63;;;5.97;;
5058;SDS011;2548;52.050;11.036;2023-08-06T02:29:09;5.55;;;5.10;;
5058;SDS011;2548;52.050;11.036;2023-08-06T02:31:37;6.25;;;5.65;;
5058;SDS011;2548;52.050;11.036;2023-08-06T02:34:05;8.35;;;5.55;;
5058;SDS011;2548;52.050;11.036;2023-08-06T02:36:32;8.07;;;5.28;;
5058;SDS011;2548;52.050;11.036;2023-08-06T02:39:00;7.45;;;5.32;;
5058;SDS011;2548;52.050;11.036;2023-08-06T02:41:29;6.70;;;5.05;;
5058;SDS011;2548;52.050;11.036;2023-08-06T02:43:57;6.63;;;5.93;;
5058;SDS011;2548;52.050;11.036;2023-08-06T02:46:25;5.60;;;4.80;;
5058;SDS011;2548;52.050;11.036;2023-08-06T02:48:53;10.13;;;5.88;;
5058;SDS011;2548;52.050;11.036;2023-08-06T02:51:21;12.38;;;5.35;;
5058;SDS011;2548;52.050;11.036;2023-08-06T02:53:49;9.67;;;5.17;;
5058;SDS011;2548;52.050;11.036;2023-08-06T02:56:17;15.15;;;5.40;;
5058;SDS011;2548;52.050;11.036;2023-08-06T02:59:05;6.75;;;4.90;;
5058;SDS011;2548;52.050;11.036;2023-08-06T03:01:51;7.80;;;5.60;;
5058;SDS011;2548;52.050;11.036;2023-08-06T03:04:27;8.63;;;4.97;;
5058;SDS011;2548;52.050;11.036;2023-08-06T03:06:54;6.97;;;5.03;;
5058;SDS011;2548;52.050;11.036;2023-08-06T03:09:25;13.55;;;4.75;;
5058;SDS011;2548;52.050;11.036;2023-08-06T03:11:53;6.32;;;3.92;;
5058;SDS011;2548;52.050;11.036;2023-08-06T03:14:20;4.88;;;4.47;;
5058;SDS011;2548;52.050;11.036;2023-08-06T03:16:48;5.20;;;4.65;;
5058;SDS011;2548;52.050;11.036;2023-08-06T03:19:19;5.68;;;5.00;;
5058;SDS011;2548;52.050;11.036;2023-08-06T03:21:46;8.25;;;5.05;;
5058;SDS011;2548;52.050;11.036;2023-08-06T03:24:14;5.28;;;4.38;;
5058;SDS011;2548;52.050;11.036;2023-08-06T03:26:44;4.83;;;4.43;;
5058;SDS011;2548;52.050;11.036;2023-08-06T03:29:12;4.63;;;4.20;;
5058;SDS011;2548;52.050;11.036;2023-08-06T03:31:40;6.07;;;4.63;;
5058;SDS011;2548;52.050;11.036;2023-08-06T03:34:08;5.00;;;4.60;;
5058;SDS011;2548;52.050;11.036;2023-08-06T03:36:37;5.85;;;4.55;;
5058;SDS011;2548;52.050;11.036;2023-08-06T03:39:06;4.60;;;4.20;;
5058;SDS011;2548;52.050;11.036;2023-08-06T03:41:33;9.90;;;5.13;;
5058;SDS011;2548;52.050;11.036;2023-08-06T03:44:01;4.78;;;4.38;;
5058;SDS011;2548;52.050;11.036;2023-08-06T03:46:29;5.15;;;4.70;;
5058;SDS011;2548;52.050;11.036;2023-08-06T03:48:59;6.07;;;4.50;;
5058;SDS011;2548;52.050;11.036;2023-08-06T03:51:27;10.07;;;4.97;;
5058;SDS011;2548;52.050;11.036;2023-08-06T03:53:57;7.70;;;4.30;;
5058;SDS011;2548;52.050;11.036;2023-08-06T03:56:25;7.07;;;4.25;;
5058;SDS011;2548;52.050;11.036;2023-08-06T03:58:52;29.63;;;4.90;;
5058;SDS011;2548;52.050;11.036;2023-08-06T04:01:19;6.65;;;4.32;;
5058;SDS011;2548;52.050;11.036;2023-08-06T04:03:47;4.20;;;4.00;;
5058;SDS011;2548;52.050;11.036;2023-08-06T04:06:15;5.38;;;4.95;;
5058;SDS011;2548;52.050;11.036;2023-08-06T04:08:42;4.78;;;4.40;;
5058;SDS011;2548;52.050;11.036;2023-08-06T04:11:11;5.97;;;4.85;;
5058;SDS011;2548;52.050;11.036;2023-08-06T04:13:42;4.75;;;4.22;;
5058;SDS011;2548;52.050;11.036;2023-08-06T04:16:10;4.68;;;4.38;;
5058;SDS011;2548;52.050;11.036;2023-08-06T04:18:38;5.32;;;4.93;;
5058;SDS011;2548;52.050;11.036;2023-08-06T04:21:06;9.00;;;4.53;;
5058;SDS011;2548;52.050;11.036;2023-08-06T04:23:33;5.95;;;5.40;;
5058;SDS011;2548;52.050;11.036;2023-08-06T04:26:04;6.13;;;5.57;;
5058;SDS011;2548;52.050;11.036;2023-08-06T04:28:35;6.85;;;4.50;;
5058;SDS011;2548;52.050;11.036;2023-08-06T04:31:02;4.82;;;4.43;;
5058;SDS011;2548;52.050;11.036;2023-08-06T04:33:32;13.20;;;4.78;;
5058;SDS011;2548;52.050;11.036;2023-08-06T04:36:06;8.02;;;5.40;;
5058;SDS011;2548;52.050;11.036;2023-08-06T04:38:33;5.35;;;4.78;;
5058;SDS011;2548;52.050;11.036;2023-08-06T04:41:01;6.55;;;5.07;;
5058;SDS011;2548;52.050;11.036;2023-08-06T04:43:29;19.58;;;5.13;;
5058;SDS011;2548;52.050;11.036;2023-08-06T04:45:58;11.35;;;5.75;;
5058;SDS011;2548;52.050;11.036;2023-08-06T04:48:26;14.10;;;5.15;;
5058;SDS011;2548;52.050;11.036;2023-08-06T04:50:53;23.70;;;6.80;;
5058;SDS011;2548;52.050;11.036;2023-08-06T04:53:21;5.20;;;4.90;;
5058;SDS011;2548;52.050;11.036;2023-08-06T04:55:48;18.48;;;5.78;;
5058;SDS011;2548;52.050;11.036;2023-08-06T04:58:16;5.65;;;4.50;;
5058;SDS011;2548;52.050;11.036;2023-08-06T05:00:43;14.95;;;6.18;;
5058;SDS011;2548;52.050;11.036;2023-08-06T05:03:12;15.50;;;5.55;;
5058;SDS011;2548;52.050;11.036;2023-08-06T05:05:39;7.80;;;5.60;;
5058;SDS011;2548;52.050;11.036;2023-08-06T05:08:07;6.70;;;5.45;;
5058;SDS011;2548;52.050;11.036;2023-08-06T05:10:41;6.72;;;5.53;;
5058;SDS011;2548;52.050;11.036;2023-08-06T05:13:09;8.65;;;4.85;;
5058;SDS011;2548;52.050;11.036;2023-08-06T05:15:37;5.60;;;5.10;;
5058;SDS011;2548;52.050;11.036;2023-08-06T05:18:05;6.68;;;5.00;;
5058;SDS011;2548;52.050;11.036;2023-08-06T05:20:36;11.23;;;6.70;;
5058;SDS011;2548;52.050;11.036;2023-08-06T05:23:04;12.00;;;5.38;;
5058;SDS011;2548;52.050;11.036;2023-08-06T05:25:31;5.68;;;5.35;;
5058;SDS011;2548;52.050;11.036;2023-08-06T05:28:01;10.45;;;5.50;;
5058;SDS011;2548;52.050;11.036;2023-08-06T05:30:28;5.40;;;5.00;;
5058;SDS011;2548;52.050;11.036;2023-08-06T05:32:55;18.58;;;5.78;;
5058;SDS011;2548;52.050;11.036;2023-08-06T05:35:23;8.30;;;6.65;;
5058;SDS011;2548;52.050;11.036;2023-08-06T05:37:52;7.07;;;5.75;;
5058;SDS011;2548;52.050;11.036;2023-08-06T05:40:19;7.13;;;6.55;;
5058;SDS011;2548;52.050;11.036;2023-08-06T05:42:47;10.03;;;6.43;;
5058;SDS011;2548;52.050;11.036;2023-08-06T05:45:14;7.00;;;6.30;;
5058;SDS011;2548;52.050;11.036;2023-08-06T05:47:42;6.18;;;5.47;;
5058;SDS011;2548;52.050;11.036;2023-08-06T05:50:10;22.85;;;7.60;;
5058;SDS011;2548;52.050;11.036;2023-08-06T05:52:37;6.80;;;6.30;;
5058;SDS011;2548;52.050;11.036;2023-08-06T05:55:06;15.60;;;6.82;;
5058;SDS011;2548;52.050;11.036;2023-08-06T05:57:34;8.00;;;5.80;;
5058;SDS011;2548;52.050;11.036;2023-08-06T06:00:02;6.00;;;5.40;;
5058;SDS011;2548;52.050;11.036;2023-08-06T06:02:38;8.18;;;6.13;;
5058;SDS011;2548;52.050;11.036;2023-08-06T06:05:05;7.60;;;6.03;;
5058;SDS011;2548;52.050;11.036;2023-08-06T06:07:33;10.00;;;6.10;;
5058;SDS011;2548;52.050;11.036;2023-08-06T06:10:01;5.18;;;4.78;;
5058;SDS011;2548;52.050;11.036;2023-08-06T06:12:30;8.00;;;5.70;;
5058;SDS011;2548;52.050;11.036;2023-08-06T06:14:57;5.85;;;5.45;;
5058;SDS011;2548;52.050;11.036;2023-08-06T06:17:26;9.20;;;5.47;;
5058;SDS011;2548;52.050;11.036;2023-08-06T06:19:54;4.95;;;4.50;;
5058;SDS011;2548;52.050;11.036;2023-08-06T06:22:21;7.00;;;5.00;;
5058;SDS011;2548;52.050;11.036;2023-08-06T06:24:49;12.23;;;4.50;;
5058;SDS011;2548;52.050;11.036;2023-08-06T06:27:16;4.35;;;3.67;;
5058;SDS011;2548;52.050;11.036;2023-08-06T06:29:45;3.92;;;3.70;;
5058;SDS011;2548;52.050;11.036;2023-08-06T06:32:12;6.88;;;4.50;;
5058;SDS011;2548;52.050;11.036;2023-08-06T06:34:40;6.05;;;3.50;;
5058;SDS011;2548;52.050;11.036;2023-08-06T06:37:07;4.30;;;3.50;;
5058;SDS011;2548;52.050;11.036;2023-08-06T06:39:35;8.30;;;3.50;;
5058;SDS011;2548;52.050;11.036;2023-08-06T06:42:02;7.43;;;4.17;;
5058;SDS011;2548;52.050;11.036;2023-08-06T06:44:36;3.67;;;3.40;;
5058;SDS011;2548;52.050;11.036;2023-08-06T06:47:05;12.27;;;4.07;;
5058;SDS011;2548;52.050;11.036;2023-08-06T06:49:32;3.50;;;3.27;;
5058;SDS011;2548;52.050;11.036;2023-08-06T06:52:00;3.90;;;3.50;;
5058;SDS011;2548;52.050;11.036;2023-08-06T06:54:27;3.22;;;3.03;;
5058;SDS011;2548;52.050;11.036;2023-08-06T06:56:55;3.77;;;2.70;;
5058;SDS011;2548;52.050;11.036;2023-08-06T06:59:22;4.78;;;3.38;;
5058;SDS011;2548;52.050;11.036;2023-08-06T07:01:49;4.40;;;3.00;;
5058;SDS011;2548;52.050;11.036;2023-08-06T07:04:18;11.73;;;3.30;;
5058;SDS011;2548;52.050;11.036;2023-08-06T07:06:46;4.03;;;3.72;;
5058;SDS011;2548;52.050;11.036;2023-08-06T07:09:14;2.77;;;2.57;;
5058;SDS011;2548;52.050;11.036;2023-08-06T07:11:42;3.37;;;3.17;;
5058;SDS011;2548;52.050;11.036;2023-08-06T07:14:09;8.07;;;2.77;;
5058;SDS011;2548;52.050;11.036;2023-08-06T07:16:37;2.50;;;2.40;;
5058;SDS011;2548;52.050;11.036;2023-08-06T07:19:04;2.53;;;2.33;;
5058;SDS011;2548;52.050;11.036;2023-08-06T07:21:33;4.10;;;2.90;;
5058;SDS011;2548;52.050;11.036;2023-08-06T07:24:00;2.90;;;2.70;;
5058;SDS011;2548;52.050;11.036;2023-08-06T07:26:28;3.23;;;2.67;;
5058;SDS011;2548;52.050;11.036;2023-08-06T07:28:55;3.00;;;2.90;;
5058;SDS011;2548;52.050;11.036;2023-08-06T07:31:23;2.80;;;2.70;;
5058;SDS011;2548;52.050;11.036;2023-08-06T07:33:51;3.00;;;2.80;;
5058;SDS011;2548;52.050;11.036;2023-08-06T07:36:18;2.80;;;2.70;;
5058;SDS011;2548;52.050;11.036;2023-08-06T07:38:47;3.20;;;3.00;;
5058;SDS011;2548;52.050;11.036;2023-08-06T07:41:21;3.70;;;2.97;;
5058;SDS011;2548;52.050;11.036;2023-08-06T07:43:48;2.40;;;2.30;;
5058;SDS011;2548;52.050;11.036;2023-08-06T07:46:16;4.30;;;2.60;;
5058;SDS011;2548;52.050;11.036;2023-08-06T07:48:43;7.53;;;2.77;;
5058;SDS011;2548;52.050;11.036;2023-08-06T07:51:11;2.80;;;2.70;;
5058;SDS011;2548;52.050;11.036;2023-08-06T07:53:38;2.33;;;2.23;;
5058;SDS011;2548;52.050;11.036;2023-08-06T07:56:08;2.60;;;2.40;;
5058;SDS011;2548;52.050;11.036;2023-08-06T07:58:36;2.63;;;2.50;;
5058;SDS011;2548;52.050;11.036;2023-08-06T08:01:03;6.03;;;1.87;;
5058;SDS011;2548;52.050;11.036;2023-08-06T08:03:32;2.40;;;2.10;;
5058;SDS011;2548;52.050;11.036;2023-08-06T08:06:00;6.10;;;1.87;;
5058;SDS011;2548;52.050;11.036;2023-08-06T08:08:27;5.83;;;1.67;;
5058;SDS011;2548;52.050;11.036;2023-08-06T08:10:54;3.43;;;1.97;;
5058;SDS011;2548;52.050;11.036;2023-08-06T08:13:26;1.67;;;1.57;;
5058;SDS011;2548;52.050;11.036;2023-08-06T08:15:56;2.17;;;1.87;;
5058;SDS011;2548;52.050;11.036;2023-08-06T08:18:24;2.13;;;2.03;;
5058;SDS011;2548;52.050;11.036;2023-08-06T08:20:51;1.93;;;1.83;;
5058;SDS011;2548;52.050;11.036;2023-08-06T08:23:18;1.90;;;1.80;;
5058;SDS011;2548;52.050;11.036;2023-08-06T08:25:46;6.83;;;1.90;;
5058;SDS011;2548;52.050;11.036;2023-08-06T08:28:13;1.83;;;1.60;;
5058;SDS011;2548;52.050;11.036;2023-08-06T08:30:42;2.90;;;2.00;;
5058;SDS011;2548;52.050;11.036;2023-08-06T08:33:10;1.63;;;1.53;;
5058;SDS011;2548;52.050;11.036;2023-08-06T08:35:37;2.20;;;2.10;;
5058;SDS011;2548;52.050;11.036;2023-08-06T08:38:06;2.30;;;2.10;;
5058;SDS011;2548;52.050;11.036;2023-08-06T08:40:33;1.93;;;1.80;;
5058;SDS011;2548;52.050;11.036;2023-08-06T08:43:04;2.90;;;1.53;;
5058;SDS011;2548;52.050;11.036;2023-08-06T08:45:32;1.60;;;1.50;;
5058;SDS011;2548;52.050;11.036;2023-08-06T08:48:07;1.80;;;1.53;;
5058;SDS011;2548;52.050;11.036;2023-08-06T08:50:36;2.17;;;2.03;;
5058;SDS011;2548;52.050;11.036;2023-08-06T08:53:04;2.50;;;1.77;;
5058;SDS011;2548;52.050;11.036;2023-08-06T08:55:32;2.00;;;1.50;;
5058;SDS011;2548;52.050;11.036;2023-08-06T08:58:00;2.53;;;1.90;;
5058;SDS011;2548;52.050;11.036;2023-08-06T09:00:28;1.90;;;1.80;;
5058;SDS011;2548;52.050;11.036;2023-08-06T09:02:55;1.50;;;1.40;;
5058;SDS011;2548;52.050;11.036;2023-08-06T09:05:27;6.20;;;2.10;;
5058;SDS011;2548;52.050;11.036;2023-08-06T09:07:56;1.70;;;1.60;;
5058;SDS011;2548;52.050;11.036;2023-08-06T09:10:30;1.40;;;1.30;;
5058;SDS011;2548;52.050;11.036;2023-08-06T09:12:58;7.33;;;1.73;;
5058;SDS011;2548;52.050;11.036;2023-08-06T09:15:27;1.90;;;1.80;;
5058;SDS011;2548;52.050;11.036;2023-08-06T09:17:55;1.57;;;1.40;;
5058;SDS011;2548;52.050;11.036;2023-08-06T09:20:22;1.30;;;1.30;;
5058;SDS011;2548;52.050;11.036;2023-08-06T09:22:53;1.83;;;1.50;;
5058;SDS011;2548;52.050;11.036;2023-08-06T09:25:21;1.50;;;1.40;;
5058;SDS011;2548;52.050;11.036;2023-08-06T09:27:50;1.70;;;1.60;;
5058;SDS011;2548;52.050;11.036;2023-08-06T09:30:28;1.87;;;1.77;;
5058;SDS011;2548;52.050;11.036;2023-08-06T09:32:57;1.60;;;1.60;;
5058;SDS011;2548;52.050;11.036;2023-08-06T09:35:24;1.40;;;1.30;;
5058;SDS011;2548;52.050;11.036;2023-08-06T09:37:55;1.57;;;1.47;;
5058;SDS011;2548;52.050;11.036;2023-08-06T09:40:26;3.50;;;1.57;;
5058;SDS011;2548;52.050;11.036;2023-08-06T09:42:55;1.70;;;1.60;;
5058;SDS011;2548;52.050;11.036;2023-08-06T09:45:23;1.20;;;1.20;;
5058;SDS011;2548;52.050;11.036;2023-08-06T09:47:55;1.33;;;1.23;;
5058;SDS011;2548;52.050;11.036;2023-08-06T09:50:23;3.30;;;2.00;;
5058;SDS011;2548;52.050;11.036;2023-08-06T09:52:58;1.37;;;1.27;;
5058;SDS011;2548;52.050;11.036;2023-08-06T09:55:27;1.40;;;1.30;;
5058;SDS011;2548;52.050;11.036;2023-08-06T09:57:55;1.30;;;1.30;;
5058;SDS011;2548;52.050;11.036;2023-08-06T10:00:23;2.10;;;1.73;;
5058;SDS011;2548;52.050;11.036;2023-08-06T10:02:51;1.40;;;1.30;;
5058;SDS011;2548;52.050;11.036;2023-08-06T10:05:21;3.60;;;1.30;;
5058;SDS011;2548;52.050;11.036;2023-08-06T10:07:50;1.37;;;1.37;;
5058;SDS011;2548;52.050;11.036;2023-08-06T10:10:20;1.37;;;1.37;;
5058;SDS011;2548;52.050;11.036;2023-08-06T10:12:48;5.53;;;1.60;;
5058;SDS011;2548;52.050;11.036;2023-08-06T10:15:19;1.43;;;1.33;;
5058;SDS011;2548;52.050;11.036;2023-08-06T10:17:51;2.67;;;1.47;;
5058;SDS011;2548;52.050;11.036;2023-08-06T10:20:21;2.10;;;1.57;;
5058;SDS011;2548;52.050;11.036;2023-08-06T10:22:59;1.23;;;1.23;;
5058;SDS011;2548;52.050;11.036;2023-08-06T10:25:31;2.00;;;1.43;;
5058;SDS011;2548;52.050;11.036;2023-08-06T10:28:00;1.30;;;1.30;;
5058;SDS011;2548;52.050;11.036;2023-08-06T10:30:28;1.47;;;1.37;;
5058;SDS011;2548;52.050;11.036;2023-08-06T10:32:57;1.30;;;1.20;;
5058;SDS011;2548;52.050;11.036;2023-08-06T10:35:31;1.43;;;1.20;;
5058;SDS011;2548;52.050;11.036;2023-08-06T10:38:05;1.40;;;1.40;;
5058;SDS011;2548;52.050;11.036;2023-08-06T10:40:36;1.80;;;1.50;;
5058;SDS011;2548;52.050;11.036;2023-08-06T10:43:05;2.07;;;1.50;;
5058;SDS011;2548;52.050;11.036;2023-08-06T10:45:36;0.93;;;0.93;;
5058;SDS011;2548;52.050;11.036;2023-08-06T10:48:04;1.60;;;1.50;;
5058;SDS011;2548;52.050;11.036;2023-08-06T10:50:32;1.40;;;1.30;;
5058;SDS011;2548;52.050;11.036;2023-08-06T10:53:03;1.50;;;0.90;;
5058;SDS011;2548;52.050;11.036;2023-08-06T10:55:32;1.27;;;1.17;;
5058;SDS011;2548;52.050;11.036;2023-08-06T10:58:01;1.10;;;1.00;;
5058;SDS011;2548;52.050;11.036;2023-08-06T11:00:29;1.30;;;1.13;;
5058;SDS011;2548;52.050;11.036;2023-08-06T11:02:57;0.97;;;0.97;;
5058;SDS011;2548;52.050;11.036;2023-08-06T11:05:24;1.10;;;1.03;;
5058;SDS011;2548;52.050;11.036;2023-08-06T11:07:52;2.47;;;1.20;;
5058;SDS011;2548;52.050;11.036;2023-08-06T11:10:19;1.30;;;1.20;;
5058;SDS011;2548;52.050;11.036;2023-08-06T11:12:47;1.47;;;1.30;;
5058;SDS011;2548;52.050;11.036;2023-08-06T11:15:16;0.83;;;0.83;;
5058;SDS011;2548;52.050;11.036;2023-08-06T11:17:43;1.67;;;1.57;;
5058;SDS011;2548;52.050;11.036;2023-08-06T11:20:11;1.50;;;1.40;;
5058;SDS011;2548;52.050;11.036;2023-08-06T11:22:39;1.00;;;1.00;;
5058;SDS011;2548;52.050;11.036;2023-08-06T11:25:07;1.47;;;1.20;;
5058;SDS011;2548;52.050;11.036;2023-08-06T11:27:34;1.20;;;1.20;;
5058;SDS011;2548;52.050;11.036;2023-08-06T11:30:02;1.13;;;1.13;;
5058;SDS011;2548;52.050;11.036;2023-08-06T11:32:31;1.10;;;1.10;;
5058;SDS011;2548;52.050;11.036;2023-08-06T11:35:09;1.17;;;1.17;;
5058;SDS011;2548;52.050;11.036;2023-08-06T11:37:37;1.67;;;1.30;;
5058;SDS011;2548;52.050;11.036;2023-08-06T11:40:10;1.10;;;1.10;;
5058;SDS011;2548;52.050;11.036;2023-08-06T11:42:37;1.60;;;1.50;;
5058;SDS011;2548;52.050;11.036;2023-08-06T11:45:05;1.40;;;1.40;;
5058;SDS011;2548;52.050;11.036;2023-08-06T11:47:39;1.53;;;1.43;;
5058;SDS011;2548;52.050;11.036;2023-08-06T11:50:07;1.33;;;1.33;;
5058;SDS011;2548;52.050;11.036;2023-08-06T11:52:35;1.40;;;1.30;;
5058;SDS011;2548;52.050;11.036;2023-08-06T11:55:08;1.60;;;1.50;;
5058;SDS011;2548;52.050;11.036;2023-08-06T11:57:37;1.33;;;1.33;;
5058;SDS011;2548;52.050;11.036;2023-08-06T12:00:06;1.63;;;1.30;;
5058;SDS011;2548;52.050;11.036;2023-08-06T12:02:40;1.20;;;1.20;;
5058;SDS011;2548;52.050;11.036;2023-08-06T12:05:11;1.40;;;1.30;;
5058;SDS011;2548;52.050;11.036;2023-08-06T12:07:40;1.17;;;1.17;;
5058;SDS011;2548;52.050;11.036;2023-08-06T12:10:09;1.53;;;1.43;;
5058;SDS011;2548;52.050;11.036;2023-08-06T12:12:37;1.40;;;1.30;;
5058;SDS011;2548;52.050;11.036;2023-08-06T12:15:04;1.43;;;1.43;;
5058;SDS011;2548;52.050;11.036;2023-08-06T12:17:33;1.30;;;1.20;;
5058;SDS011;2548;52.050;11.036;2023-08-06T12:20:02;1.83;;;1.60;;
5058;SDS011;2548;52.050;11.036;2023-08-06T12:22:30;1.37;;;1.27;;
5058;SDS011;2548;52.050;11.036;2023-08-06T12:25:00;1.70;;;1.60;;
5058;SDS011;2548;52.050;11.036;2023-08-06T12:27:29;1.20;;;1.10;;
5058;SDS011;2548;52.050;11.036;2023-08-06T12:29:56;1.40;;;1.30;;
5058;SDS011;2548;52.050;11.036;2023-08-06T12:32:23;1.77;;;1.40;;
5058;SDS011;2548;52.050;11.036;2023-08-06T12:34:51;2.20;;;1.27;;
5058;SDS011;2548;52.050;11.036;2023-08-06T12:37:19;1.40;;;1.40;;
5058;SDS011;2548;52.050;11.036;2023-08-06T12:39:48;2.97;;;1.40;;
5058;SDS011;2548;52.050;11.036;2023-08-06T12:42:16;1.00;;;1.00;;
5058;SDS011;2548;52.050;11.036;2023-08-06T12:44:43;3.13;;;1.27;;
5058;SDS011;2548;52.050;11.036;2023-08-06T12:47:11;1.40;;;1.30;;
5058;SDS011;2548;52.050;11.036;2023-08-06T12:49:38;1.67;;;1.57;;
5058;SDS011;2548;52.050;11.036;2023-08-06T12:52:05;1.60;;;1.50;;
5058;SDS011;2548;52.050;11.036;2023-08-06T12:54:34;1.10;;;1.10;;
5058;SDS011;2548;52.050;11.036;2023-08-06T12:57:02;1.53;;;1.43;;
5058;SDS011;2548;52.050;11.036;2023-08-06T12:59:30;1.60;;;1.60;;
5058;SDS011;2548;52.050;11.036;2023-08-06T13:01:58;1.10;;;1.10;;
5058;SDS011;2548;52.050;11.036;2023-08-06T13:04:26;1.40;;;1.30;;
5058;SDS011;2548;52.050;11.036;2023-08-06T13:06:54;1.20;;;1.10;;
5058;SDS011;2548;52.050;11.036;2023-08-06T13:09:21;2.60;;;1.20;;
5058;SDS011;2548;52.050;11.036;2023-08-06T13:11:50;1.00;;;1.00;;
5058;SDS011;2548;52.050;11.036;2023-08-06T13:14:18;1.70;;;1.60;;
5058;SDS011;2548;52.050;11.036;2023-08-06T13:16:46;2.13;;;1.37;;
5058;SDS011;2548;52.050;11.036;2023-08-06T13:19:13;1.13;;;1.10;;
5058;SDS011;2548;52.050;11.036;2023-08-06T13:22:00;1.10;;;1.10;;
5058;SDS011;2548;52.050;11.036;2023-08-06T13:24:30;1.30;;;1.30;;
5058;SDS011;2548;52.050;11.036;2023-08-06T13:26:59;1.97;;;1.87;;
5058;SDS011;2548;52.050;11.036;2023-08-06T13:29:27;1.47;;;1.37;;
5058;SDS011;2548;52.050;11.036;2023-08-06T13:31:54;1.40;;;1.30;;
5058;SDS011;2548;52.050;11.036;2023-08-06T13:34:22;1.10;;;1.10;;
5058;SDS011;2548;52.050;11.036;2023-08-06T13:36:49;2.67;;;1.23;;
5058;SDS011;2548;52.050;11.036;2023-08-06T13:39:17;1.40;;;1.30;;
5058;SDS011;2548;52.050;11.036;2023-08-06T13:41:45;1.87;;;1.77;;
5058;SDS011;2548;52.050;11.036;2023-08-06T13:44:14;1.20;;;1.20;;
5058;SDS011;2548;52.050;11.036;2023-08-06T13:46:42;3.93;;;1.37;;
5058;SDS011;2548;52.050;11.036;2023-08-06T13:49:09;4.40;;;1.27;;
5058;SDS011;2548;52.050;11.036;2023-08-06T13:51:37;2.00;;;1.90;;
5058;SDS011;2548;52.050;11.036;2023-08-06T13:54:05;1.80;;;1.70;;
5058;SDS011;2548;52.050;11.036;2023-08-06T13:56:32;1.93;;;1.30;;
5058;SDS011;2548;52.050;11.036;2023-08-06T13:59:03;6.60;;;1.93;;
5058;SDS011;2548;52.050;11.036;2023-08-06T14:01:32;1.60;;;1.50;;
5058;SDS011;2548;52.050;11.036;2023-08-06T14:03:59;4.97;;;1.50;;
5058;SDS011;2548;52.050;11.036;2023-08-06T14:06:27;1.47;;;1.37;;
5058;SDS011;2548;52.050;11.036;2023-08-06T14:08:54;2.87;;;1.63;;
5058;SDS011;2548;52.050;11.036;2023-08-06T14:11:22;1.70;;;1.60;;
5058;SDS011;2548;52.050;11.036;2023-08-06T14:13:49;4.60;;;1.60;;
5058;SDS011;2548;52.050;11.036;2023-08-06T14:16:16;1.63;;;1.53;;
5058;SDS011;2548;52.050;11.036;2023-08-06T14:18:45;1.47;;;1.47;;
5058;SDS011;2548;52.050;11.036;2023-08-06T14:21:13;1.67;;;1.40;;
5058;SDS011;2548;52.050;11.036;2023-08-06T14:23:41;1.97;;;1.87;;
5058;SDS011;2548;52.050;11.036;2023-08-06T14:26:07;1.97;;;1.70;;
5058;SDS011;2548;52.050;11.036;2023-08-06T14:28:36;4.57;;;1.70;;
5058;SDS011;2548;52.050;11.036;2023-08-06T14:31:03;1.70;;;1.60;;
5058;SDS011;2548;52.050;11.036;2023-08-06T14:33:31;1.43;;;1.43;;
5058;SDS011;2548;52.050;11.036;2023-08-06T14:36:00;1.70;;;1.60;;
5058;SDS011;2548;52.050;11.036;2023-08-06T14:38:27;1.97;;;1.70;;
5058;SDS011;2548;52.050;11.036;2023-08-06T14:40:55;1.37;;;1.37;;
5058;SDS011;2548;52.050;11.036;2023-08-06T14:43:22;1.63;;;1.53;;
5058;SDS011;2548;52.050;11.036;2023-08-06T14:45:50;3.50;;;2.13;;
5058;SDS011;2548;52.050;11.036;2023-08-06T14:48:17;1.70;;;1.60;;
5058;SDS011;2548;52.050;11.036;2023-08-06T14:50:45;1.30;;;1.30;;
5058;SDS011;2548;52.050;11.036;2023-08-06T14:53:13;2.17;;;1.90;;
5058;SDS011;2548;52.050;11.036;2023-08-06T14:55:41;2.27;;;2.07;;
5058;SDS011;2548;52.050;11.036;2023-08-06T14:58:08;2.97;;;2.40;;
5058;SDS011;2548;52.050;11.036;2023-08-06T15:00:36;2.23;;;2.13;;
5058;SDS011;2548;52.050;11.036;2023-08-06T15:03:03;3.13;;;2.20;;
5058;SDS011;2548;52.050;11.036;2023-08-06T15:05:31;2.30;;;2.20;;
5058;SDS011;2548;52.050;11.036;2023-08-06T15:07:59;2.33;;;2.17;;